createdAt,value
2022-12-23T00:01:42.166Z,7.92
2022-12-23T00:04:10.565Z,7.98
2022-12-23T00:06:38.962Z,8.03
2022-12-23T00:09:07.350Z,8.10
2022-12-23T00:11:37.055Z,8.11
2022-12-23T00:14:22.864Z,8.08
2022-12-23T00:16:51.775Z,8.12
2022-12-23T00:19:20.425Z,8.12
2022-12-23T00:21:49.276Z,8.16
2022-12-23T00:24:17.662Z,8.20
2022-12-23T00:26:47.462Z,8.22
2022-12-23T00:29:16.041Z,8.23
2022-12-23T00:31:44.556Z,8.30
2022-12-23T00:34:13.877Z,8.28
2022-12-23T00:36:42.242Z,8.28
2022-12-23T00:39:30.413Z,8.24
2022-12-23T00:42:17.473Z,8.27
2022-12-23T00:44:45.824Z,8.29
2022-12-23T00:47:36.040Z,8.36
2022-12-23T00:50:03.796Z,8.38
2022-12-23T00:52:32.140Z,8.38
2022-12-23T00:55:00.594Z,8.35
2022-12-23T00:57:30.227Z,8.38
2022-12-23T00:59:58.606Z,8.38
2022-12-23T01:02:44.607Z,8.41
2022-12-23T01:05:30.199Z,8.43
2022-12-23T01:07:58.466Z,8.42
2022-12-23T01:10:26.851Z,8.38
2022-12-23T01:12:56.605Z,8.39
2022-12-23T01:15:25.148Z,8.32
2022-12-23T01:17:53.547Z,8.34
2022-12-23T01:20:22.056Z,8.27
2022-12-23T01:22:50.415Z,8.30
2022-12-23T01:25:19.074Z,8.36
2022-12-23T01:27:47.390Z,8.31
2022-12-23T01:30:17.302Z,8.36
2022-12-23T01:32:45.691Z,8.31
2022-12-23T01:35:14.489Z,8.29
2022-12-23T01:37:42.905Z,8.33
2022-12-23T01:40:11.830Z,8.35
2022-12-23T01:42:45.250Z,8.31
2022-12-23T01:45:20.861Z,8.31
2022-12-23T01:47:51.189Z,8.25
2022-12-23T01:50:23.545Z,8.27
2022-12-23T01:53:03.093Z,8.28
2022-12-23T01:55:39.658Z,8.27
2022-12-23T01:58:12.864Z,8.28
2022-12-23T02:01:01.363Z,8.25
2022-12-23T02:03:44.180Z,8.29
2022-12-23T02:06:35.578Z,8.22
2022-12-23T02:09:18.476Z,8.22
2022-12-23T02:12:28.034Z,8.21
2022-12-23T02:15:51.195Z,8.19
2022-12-23T02:18:47.798Z,8.16
2022-12-23T02:21:37.356Z,8.14
2022-12-23T02:24:37.576Z,8.12
2022-12-23T02:27:12.715Z,8.16
2022-12-23T02:30:16.072Z,8.13
2022-12-23T02:32:56.870Z,8.08
2022-12-23T02:35:31.387Z,8.02
2022-12-23T02:38:09.144Z,7.93
2022-12-23T02:40:43.795Z,8.01
2022-12-23T02:43:18.318Z,8.01
2022-12-23T02:45:52.186Z,8.05
2022-12-23T02:48:28.630Z,7.99
2022-12-23T02:50:58.690Z,8.03
2022-12-23T02:53:31.462Z,8.09
2022-12-23T02:56:01.915Z,8.04
2022-12-23T02:58:35.000Z,7.99
2022-12-23T03:01:07.052Z,8.05
2022-12-23T03:03:38.736Z,8.00
2022-12-23T03:06:18.495Z,7.96
2022-12-23T03:08:47.162Z,7.95
2022-12-23T03:11:17.790Z,7.93
2022-12-23T03:14:07.011Z,7.91
2022-12-23T03:16:45.638Z,7.88
2022-12-23T03:19:24.591Z,7.92
2022-12-23T03:22:00.961Z,7.86
2022-12-23T03:24:36.296Z,7.83
2022-12-23T03:27:11.322Z,7.87
2022-12-23T03:29:46.575Z,7.61
2022-12-23T03:32:17.410Z,7.68
2022-12-23T03:34:51.181Z,7.67
2022-12-23T03:37:23.586Z,7.80
2022-12-23T03:39:58.782Z,7.56
2022-12-23T03:42:30.384Z,7.79
2022-12-23T03:47:54.871Z,7.57
2022-12-23T03:50:26.570Z,7.70
2022-12-23T03:52:59.755Z,7.67
2022-12-23T03:55:33.452Z,7.68
2022-12-23T03:58:09.072Z,7.62
2022-12-23T04:00:42.048Z,7.62
2022-12-23T04:03:18.631Z,7.50
2022-12-23T04:05:54.507Z,7.48
2022-12-23T04:08:28.302Z,7.63
2022-12-23T04:10:58.758Z,7.49
2022-12-23T04:13:28.314Z,7.57
2022-12-23T04:15:59.380Z,7.48
2022-12-23T04:18:29.086Z,7.45
2022-12-23T04:20:59.413Z,7.48
2022-12-23T04:23:28.096Z,7.50
2022-12-23T04:25:56.794Z,7.64
2022-12-23T04:28:25.513Z,7.40
2022-12-23T04:30:54.196Z,7.64
2022-12-23T04:33:22.910Z,7.61
2022-12-23T04:35:51.625Z,7.73
2022-12-23T04:38:22.046Z,7.60
2022-12-23T04:40:50.597Z,7.64
2022-12-23T04:43:19.327Z,7.68
2022-12-23T04:45:51.520Z,7.76
2022-12-23T04:48:20.507Z,7.64
2022-12-23T04:50:49.034Z,7.78
2022-12-23T04:53:17.530Z,7.72
2022-12-23T04:55:52.270Z,7.76
2022-12-23T04:58:22.054Z,7.56
2022-12-23T05:00:50.962Z,7.65
2022-12-23T05:03:22.589Z,7.61
2022-12-23T05:05:51.298Z,7.75
2022-12-23T05:08:19.833Z,7.73
2022-12-23T05:10:49.822Z,7.76
2022-12-23T05:13:18.507Z,7.81
2022-12-23T05:15:51.049Z,7.68
2022-12-23T05:18:20.151Z,7.81
2022-12-23T05:20:49.605Z,7.81
2022-12-23T05:23:18.172Z,7.71
2022-12-23T05:25:53.661Z,7.80
2022-12-23T05:28:23.698Z,7.60
2022-12-23T05:30:59.043Z,7.68
2022-12-23T05:33:28.049Z,7.78
2022-12-23T05:35:57.169Z,7.61
2022-12-23T05:38:26.212Z,7.60
2022-12-23T05:40:56.067Z,7.80
2022-12-23T05:43:25.234Z,7.74
2022-12-23T05:45:53.845Z,7.81
2022-12-23T05:48:22.725Z,7.79
2022-12-23T05:50:51.739Z,7.78
2022-12-23T05:53:21.320Z,7.77
2022-12-23T05:55:49.716Z,7.71
2022-12-23T05:58:19.527Z,7.70
2022-12-23T06:00:47.968Z,7.75
2022-12-23T06:03:16.532Z,7.74
2022-12-23T06:05:45.044Z,7.72
2022-12-23T06:08:13.392Z,7.71
2022-12-23T06:10:41.840Z,7.72
2022-12-23T06:13:10.358Z,7.68
2022-12-23T06:15:40.238Z,7.72
2022-12-23T06:18:08.704Z,7.69
2022-12-23T06:20:37.373Z,7.71
2022-12-23T06:23:05.828Z,7.64
2022-12-23T06:25:34.340Z,7.69
2022-12-23T06:28:02.730Z,7.62
2022-12-23T06:30:31.171Z,7.59
2022-12-23T06:33:00.930Z,7.59
2022-12-23T06:35:29.440Z,7.56
2022-12-23T06:37:57.894Z,7.61
2022-12-23T06:40:28.339Z,7.63
2022-12-23T06:42:56.807Z,7.61
2022-12-23T06:45:25.365Z,7.64
2022-12-23T06:47:53.838Z,7.70
2022-12-23T06:50:23.658Z,7.66
2022-12-23T06:52:52.024Z,7.63
2022-12-23T06:55:20.491Z,7.65
2022-12-23T06:57:48.858Z,7.72
2022-12-23T07:00:18.016Z,7.71
2022-12-23T07:02:46.527Z,7.68
2022-12-23T07:05:15.237Z,7.70
2022-12-23T07:07:44.946Z,7.69
2022-12-23T07:10:13.324Z,7.68
2022-12-23T07:12:46.001Z,7.71
2022-12-23T07:15:17.697Z,7.79
2022-12-23T07:17:46.005Z,7.81
2022-12-23T07:20:14.723Z,7.77
2022-12-23T07:22:42.993Z,7.77
2022-12-23T07:25:13.565Z,7.76
2022-12-23T07:27:41.894Z,7.73
2022-12-23T07:30:11.141Z,7.77
2022-12-23T07:32:39.529Z,7.75
2022-12-23T07:35:08.313Z,7.72
2022-12-23T07:37:36.644Z,7.75
2022-12-23T07:40:08.729Z,7.72
2022-12-23T07:42:47.086Z,7.71
2022-12-23T07:45:15.765Z,7.71
2022-12-23T07:47:44.385Z,7.69
2022-12-23T07:50:13.645Z,7.71
2022-12-23T07:52:41.999Z,7.65
2022-12-23T07:55:10.734Z,7.55
2022-12-23T07:57:40.688Z,7.57
2022-12-23T08:00:15.044Z,7.60
2022-12-23T08:02:43.944Z,7.57
2022-12-23T08:05:14.116Z,7.55
2022-12-23T08:07:44.921Z,7.54
2022-12-23T08:10:13.624Z,7.51
2022-12-23T08:12:43.374Z,7.57
2022-12-23T08:15:12.044Z,7.59
2022-12-23T08:17:40.367Z,7.53
2022-12-23T08:20:09.793Z,7.60
2022-12-23T08:22:38.330Z,7.58
2022-12-23T08:25:07.716Z,7.52
2022-12-23T08:27:36.625Z,7.54
2022-12-23T08:30:08.001Z,7.53
2022-12-23T08:32:36.563Z,7.52
2022-12-23T08:35:05.457Z,7.56
2022-12-23T08:37:33.845Z,7.56
2022-12-23T08:40:02.191Z,7.67
2022-12-23T08:42:30.566Z,7.66
2022-12-23T08:44:58.947Z,7.63
2022-12-23T08:47:28.656Z,7.60
2022-12-23T08:49:57.004Z,7.60
2022-12-23T08:52:25.404Z,7.63
2022-12-23T08:54:54.293Z,7.57
2022-12-23T08:57:22.628Z,7.63
2022-12-23T08:59:51.749Z,7.53
2022-12-23T09:02:22.445Z,7.50
2022-12-23T09:04:52.438Z,7.42
2022-12-23T09:07:20.789Z,7.54
2022-12-23T09:09:49.245Z,7.68
2022-12-23T09:12:17.592Z,7.62
2022-12-23T09:14:47.564Z,7.58
2022-12-23T09:17:17.574Z,7.63
2022-12-23T09:19:52.425Z,7.61
2022-12-23T09:22:22.787Z,7.62
2022-12-23T09:24:51.119Z,7.71
2022-12-23T09:27:19.657Z,7.76
2022-12-23T09:29:58.034Z,7.75
2022-12-23T09:32:26.481Z,7.83
2022-12-23T09:34:54.937Z,7.80
2022-12-23T09:37:24.627Z,7.88
2022-12-23T09:40:20.847Z,7.93
2022-12-23T09:43:02.565Z,7.93
2022-12-23T09:46:05.352Z,7.82
2022-12-23T09:48:37.703Z,7.84
2022-12-23T09:51:22.721Z,7.88
2022-12-23T09:54:01.651Z,7.89
2022-12-23T09:56:38.906Z,7.92
2022-12-23T09:59:34.328Z,7.92
2022-12-23T10:02:19.757Z,7.95
2022-12-23T10:05:04.132Z,7.97
2022-12-23T10:07:38.239Z,7.95
2022-12-23T10:13:26.442Z,7.88
2022-12-23T10:16:26.977Z,7.83
2022-12-23T10:19:00.918Z,7.84
2022-12-23T10:21:42.265Z,7.83
2022-12-23T10:24:17.798Z,7.78
2022-12-23T10:26:53.857Z,7.75
2022-12-23T10:29:32.260Z,7.70
2022-12-23T10:32:16.245Z,7.83
2022-12-23T10:34:53.445Z,7.74
2022-12-23T10:37:43.294Z,7.78
2022-12-23T10:40:21.700Z,7.69
2022-12-23T10:43:08.158Z,7.64
2022-12-23T10:45:48.012Z,7.60
2022-12-23T10:48:28.853Z,7.58
2022-12-23T10:51:09.405Z,7.54
2022-12-23T10:53:42.916Z,7.55
2022-12-23T10:56:11.954Z,7.54
2022-12-23T10:59:00.809Z,7.61
2022-12-23T11:01:31.194Z,7.61
2022-12-23T11:04:07.444Z,7.71
2022-12-23T11:07:10.682Z,7.68
2022-12-23T11:09:41.693Z,7.67
2022-12-23T11:12:16.298Z,7.68
2022-12-23T11:14:53.682Z,7.71
2022-12-23T11:17:23.947Z,7.75
2022-12-23T11:20:13.919Z,7.94
2022-12-23T11:22:48.842Z,7.95
2022-12-23T11:25:32.532Z,7.91
2022-12-23T11:28:16.118Z,7.97
2022-12-23T11:30:56.973Z,7.99
2022-12-23T11:33:28.940Z,7.97
2022-12-23T11:36:15.776Z,7.91
2022-12-23T11:38:51.667Z,7.97
2022-12-23T11:41:23.279Z,7.91
2022-12-23T11:44:05.189Z,7.86
2022-12-23T11:46:36.243Z,7.86
2022-12-23T11:49:07.916Z,7.80
2022-12-23T11:51:36.292Z,7.82
2022-12-23T11:54:17.191Z,7.91
2022-12-23T11:56:45.687Z,7.96
2022-12-23T11:59:28.203Z,8.08
2022-12-23T12:02:04.635Z,8.24
2022-12-23T12:04:36.636Z,8.25
2022-12-23T12:07:07.760Z,8.24
2022-12-23T12:09:46.529Z,8.29
2022-12-23T12:12:20.992Z,8.30
2022-12-23T12:14:52.494Z,8.38
2022-12-23T12:17:27.608Z,8.28
2022-12-23T12:20:05.807Z,8.34
2022-12-23T12:22:40.111Z,8.33
2022-12-23T12:25:19.394Z,8.31
2022-12-23T12:28:00.985Z,8.35
2022-12-23T12:30:35.091Z,8.36
2022-12-23T12:33:15.559Z,8.35
2022-12-23T12:35:53.636Z,8.49
2022-12-23T12:38:26.793Z,8.39
2022-12-23T12:41:01.633Z,8.61
2022-12-23T12:43:49.607Z,8.71
2022-12-23T12:46:32.112Z,8.80
2022-12-23T12:49:22.652Z,8.89
2022-12-23T12:51:58.011Z,8.92
2022-12-23T12:54:31.634Z,9.00
2022-12-23T12:57:19.632Z,9.08
2022-12-23T12:59:51.427Z,9.14
2022-12-23T13:02:59.607Z,9.16
2022-12-23T13:05:51.809Z,9.24
2022-12-23T13:08:50.948Z,9.27
2022-12-23T13:11:28.756Z,9.30
2022-12-23T13:14:25.787Z,9.28
2022-12-23T13:17:05.929Z,9.33
2022-12-23T13:19:50.933Z,9.43
2022-12-23T13:22:31.478Z,9.36
2022-12-23T13:25:06.895Z,9.47
2022-12-23T13:27:58.549Z,9.58
2022-12-23T13:30:32.309Z,9.70
2022-12-23T13:33:26.899Z,9.76
2022-12-23T13:36:09.091Z,9.86
2022-12-23T13:39:04.915Z,9.83
2022-12-23T13:41:45.031Z,9.89
2022-12-23T13:44:15.062Z,10.02
2022-12-23T13:47:00.443Z,10.11
2022-12-23T13:49:51.741Z,10.19
2022-12-23T13:52:45.289Z,10.25
2022-12-23T13:55:25.994Z,10.31
2022-12-23T13:58:02.414Z,10.37
2022-12-23T14:00:32.822Z,10.39
2022-12-23T14:03:19.994Z,10.39
2022-12-23T14:05:58.016Z,10.38
2022-12-23T14:08:41.129Z,10.39
2022-12-23T14:11:21.147Z,10.43
2022-12-23T14:13:56.140Z,10.49
2022-12-23T14:16:50.330Z,10.54
2022-12-23T14:19:36.920Z,10.56
2022-12-23T14:22:21.180Z,10.54
2022-12-23T14:25:17.129Z,10.57
2022-12-23T14:27:59.070Z,10.65
2022-12-23T14:30:46.545Z,10.61
2022-12-23T14:33:24.972Z,10.61
2022-12-23T14:35:57.688Z,10.70
2022-12-23T14:38:42.476Z,10.61
2022-12-23T14:41:24.543Z,10.64
2022-12-23T14:43:57.344Z,10.64
2022-12-23T14:46:59.479Z,10.69
2022-12-23T14:49:44.370Z,10.68
2022-12-23T14:52:44.638Z,10.71
2022-12-23T14:55:46.306Z,10.78
2022-12-23T14:58:27.713Z,10.81
2022-12-23T15:01:10.023Z,10.87
2022-12-23T15:03:44.299Z,10.78
2022-12-23T15:06:19.044Z,10.77
2022-12-23T15:08:56.467Z,10.85
2022-12-23T15:11:29.275Z,10.87
2022-12-23T15:14:01.212Z,10.76
2022-12-23T15:16:37.585Z,10.83
2022-12-23T15:19:18.956Z,10.79
2022-12-23T15:21:53.734Z,10.78
2022-12-23T15:24:27.348Z,10.83
2022-12-23T15:27:25.360Z,10.85
2022-12-23T15:29:48.482Z,10.85
2022-12-23T15:32:19.413Z,10.82
2022-12-23T15:34:49.151Z,10.95
2022-12-23T15:37:23.262Z,10.89
2022-12-23T15:40:00.297Z,10.70
2022-12-23T15:42:35.356Z,10.86
2022-12-23T15:49:20.186Z,10.74
2022-12-23T15:52:07.761Z,10.79
2022-12-23T15:54:43.932Z,10.68
2022-12-23T15:57:18.827Z,10.67
2022-12-23T15:59:47.333Z,10.59
2022-12-23T16:05:10.988Z,10.55
2022-12-23T16:07:40.771Z,10.55
2022-12-23T16:10:16.419Z,10.47
2022-12-23T16:12:45.349Z,10.42
2022-12-23T16:15:21.938Z,10.42
2022-12-23T16:17:50.354Z,10.27
2022-12-23T16:20:27.555Z,10.18
2022-12-23T16:22:58.546Z,10.34
2022-12-23T16:25:32.798Z,10.30
2022-12-23T16:28:05.160Z,10.27
2022-12-23T16:30:38.283Z,10.23
2022-12-23T16:33:08.611Z,10.22
2022-12-23T16:35:44.531Z,10.20
2022-12-23T16:38:20.025Z,10.20
2022-12-23T16:40:52.901Z,10.25
2022-12-23T16:43:39.059Z,10.25
2022-12-23T16:46:20.360Z,10.24
2022-12-23T16:48:55.514Z,10.28
2022-12-23T16:51:30.748Z,10.05
2022-12-23T16:54:07.676Z,10.05
2022-12-23T16:56:39.002Z,10.14
2022-12-23T16:59:16.705Z,10.10
2022-12-23T17:01:50.215Z,10.21
2022-12-23T17:04:46.226Z,10.10
2022-12-23T17:07:15.175Z,10.10
2022-12-23T17:09:46.224Z,9.93
2022-12-23T17:12:26.348Z,9.85
2022-12-23T17:14:55.032Z,9.98
2022-12-23T17:17:25.850Z,10.00
2022-12-23T17:19:58.599Z,9.94
2022-12-23T17:22:34.135Z,10.01
2022-12-23T17:25:02.841Z,9.99
2022-12-23T17:27:31.286Z,9.95
2022-12-23T17:29:59.635Z,9.98
2022-12-23T17:32:28.357Z,9.95
2022-12-23T17:34:56.901Z,10.00
2022-12-23T17:37:25.344Z,10.00
2022-12-23T17:39:55.057Z,9.98
2022-12-23T17:42:26.135Z,9.89
2022-12-23T17:44:54.724Z,9.89
2022-12-23T17:47:23.611Z,9.99
2022-12-23T17:49:52.125Z,10.00
2022-12-23T17:52:23.498Z,9.98
2022-12-23T17:54:52.591Z,9.95
2022-12-23T17:57:24.849Z,10.08
2022-12-23T17:59:56.756Z,9.98
2022-12-23T18:02:27.271Z,9.96
2022-12-23T18:04:55.749Z,9.94
2022-12-23T18:07:24.079Z,10.00
2022-12-23T18:09:52.713Z,9.93
2022-12-23T18:12:31.667Z,9.98
2022-12-23T18:15:00.676Z,9.90
2022-12-23T18:17:29.331Z,9.93
2022-12-23T18:19:57.655Z,9.92
2022-12-23T18:22:27.598Z,9.88
2022-12-23T18:24:59.364Z,9.91
2022-12-23T18:27:29.412Z,9.87
2022-12-23T18:29:57.777Z,9.87
2022-12-23T18:32:28.554Z,9.82
2022-12-23T18:34:57.326Z,9.91
2022-12-23T18:37:26.103Z,9.92
2022-12-23T18:39:54.527Z,9.83
2022-12-23T18:42:23.098Z,9.89
2022-12-23T18:44:52.851Z,9.85
2022-12-23T18:47:21.309Z,9.87
2022-12-23T18:49:49.681Z,9.88
2022-12-23T18:52:18.097Z,9.84
2022-12-23T18:54:46.658Z,9.80
2022-12-23T18:57:15.006Z,9.72
2022-12-23T18:59:43.465Z,9.79
2022-12-23T19:02:15.137Z,9.80
2022-12-23T19:04:43.706Z,9.75
2022-12-23T19:07:12.484Z,9.53
2022-12-23T19:09:40.960Z,9.46
2022-12-23T19:12:09.284Z,9.36
2022-12-23T19:14:39.722Z,9.31
2022-12-23T19:17:08.704Z,9.32
2022-12-23T19:19:38.440Z,9.27
2022-12-23T19:22:06.849Z,9.34
2022-12-23T19:24:35.296Z,9.32
2022-12-23T19:27:03.727Z,9.43
2022-12-23T19:29:32.063Z,9.48
2022-12-23T19:32:00.420Z,9.45
2022-12-23T19:34:28.750Z,9.51
2022-12-23T19:36:58.423Z,9.51
2022-12-23T19:39:26.947Z,9.60
2022-12-23T19:41:55.380Z,9.59
2022-12-23T19:44:23.732Z,9.61
2022-12-23T19:46:52.164Z,9.65
2022-12-23T19:49:20.695Z,9.66
2022-12-23T19:51:49.535Z,9.62
2022-12-23T19:54:20.283Z,9.71
2022-12-23T19:56:51.175Z,9.73
2022-12-23T19:59:19.866Z,9.73
2022-12-23T20:01:48.428Z,9.66
2022-12-23T20:04:17.233Z,9.73
2022-12-23T20:06:45.634Z,9.75
2022-12-23T20:09:14.603Z,9.76
2022-12-23T20:11:46.251Z,9.73
2022-12-23T20:14:16.435Z,9.76
2022-12-23T20:16:45.048Z,9.75
2022-12-23T20:19:13.431Z,9.76
2022-12-23T20:21:41.826Z,9.72
2022-12-23T20:24:10.495Z,9.68
2022-12-23T20:26:38.940Z,9.74
2022-12-23T20:29:09.396Z,9.69
2022-12-23T20:31:39.272Z,9.77
2022-12-23T20:34:09.322Z,9.72
2022-12-23T20:36:38.467Z,9.64
2022-12-23T20:39:07.118Z,9.63
2022-12-23T20:41:35.978Z,9.55
2022-12-23T20:46:54.736Z,9.28
2022-12-23T20:49:23.317Z,9.20
2022-12-23T20:51:51.646Z,9.20
2022-12-23T20:54:24.906Z,9.18
2022-12-23T20:56:56.492Z,9.26
2022-12-23T20:59:24.912Z,9.32
2022-12-23T21:01:54.958Z,9.40
2022-12-23T21:04:23.512Z,9.44
2022-12-23T21:06:51.851Z,9.43
2022-12-23T21:09:20.392Z,9.51
2022-12-23T21:11:48.917Z,9.46
2022-12-23T21:14:17.289Z,9.54
2022-12-23T21:16:46.467Z,9.56
2022-12-23T21:19:19.579Z,9.58
2022-12-23T21:21:49.522Z,9.56
2022-12-23T21:24:18.950Z,9.45
2022-12-23T21:26:55.707Z,9.37
2022-12-23T21:29:25.462Z,9.35
2022-12-23T21:31:54.893Z,9.32
2022-12-23T21:34:24.966Z,9.27
2022-12-23T21:36:53.572Z,9.19
2022-12-23T21:39:22.097Z,9.24
2022-12-23T21:41:51.321Z,9.26
2022-12-23T21:44:19.833Z,9.27
2022-12-23T21:46:50.953Z,9.26
2022-12-23T21:49:21.050Z,9.22
2022-12-23T21:51:50.972Z,9.19
2022-12-23T21:54:19.480Z,9.08
2022-12-23T21:56:47.756Z,9.03
2022-12-23T21:59:16.148Z,9.00
2022-12-23T22:01:44.878Z,9.02
2022-12-23T22:04:13.557Z,8.90
2022-12-23T22:06:44.498Z,8.97
2022-12-23T22:09:16.320Z,9.07
2022-12-23T22:11:44.943Z,9.07
2022-12-23T22:14:15.813Z,9.10
2022-12-23T22:16:44.525Z,9.11
2022-12-23T22:19:13.386Z,9.10
2022-12-23T22:21:42.510Z,9.11
2022-12-23T22:24:11.657Z,9.12
2022-12-23T22:26:41.945Z,9.12
2022-12-23T22:29:12.480Z,9.16
2022-12-23T22:31:44.439Z,9.14
2022-12-23T22:34:15.047Z,9.11
2022-12-23T22:36:43.829Z,9.11
2022-12-23T22:39:20.119Z,9.13
2022-12-23T22:41:52.126Z,9.06
2022-12-23T22:44:21.400Z,9.06
2022-12-23T22:46:49.962Z,9.07
2022-12-23T22:49:18.597Z,8.98
2022-12-23T22:51:47.190Z,9.03
2022-12-23T22:54:15.792Z,8.97
2022-12-23T22:56:46.545Z,8.92
2022-12-23T22:59:24.298Z,9.00
2022-12-23T23:01:53.904Z,8.98
2022-12-23T23:04:22.368Z,8.99
2022-12-23T23:06:50.985Z,8.93
2022-12-23T23:09:21.614Z,8.95
2022-12-23T23:11:50.289Z,8.97
2022-12-23T23:14:19.557Z,8.94
2022-12-23T23:16:49.543Z,8.94
2022-12-23T23:19:20.267Z,8.92
2022-12-23T23:21:49.038Z,8.95
2022-12-23T23:24:17.477Z,8.93
2022-12-23T23:26:45.893Z,8.96
2022-12-23T23:29:14.384Z,8.94
2022-12-23T23:31:43.858Z,8.84
2022-12-23T23:34:14.489Z,8.91
2022-12-23T23:36:43.137Z,8.98
2022-12-23T23:39:12.854Z,8.96
2022-12-23T23:41:41.970Z,8.94
2022-12-23T23:44:10.452Z,8.93
2022-12-23T23:46:39.146Z,8.87
2022-12-23T23:49:07.474Z,8.92
2022-12-23T23:51:37.479Z,8.97
2022-12-23T23:54:07.319Z,8.90
2022-12-23T23:56:39.222Z,8.89
2022-12-23T23:59:08.542Z,8.89
